sensor_id;sensor_type;location;lat;lon;timestamp;P1;durP1;ratioP1;P2;durP2;ratioP2
74939;SDS011;63505;45.226;37.908;2023-04-24T00:00:51;6.93;;;4.53;;
74939;SDS011;63505;45.226;37.908;2023-04-24T00:03:18;6.88;;;3.97;;
74939;SDS011;63505;45.226;37.908;2023-04-24T00:05:46;8.70;;;4.55;;
74939;SDS011;63505;45.226;37.908;2023-04-24T00:08:13;8.10;;;4.82;;
74939;SDS011;63505;45.226;37.908;2023-04-24T00:10:40;9.52;;;4.45;;
74939;SDS011;63505;45.226;37.908;2023-04-24T00:13:07;7.88;;;3.80;;
74939;SDS011;63505;45.226;37.908;2023-04-24T00:15:34;8.82;;;4.47;;
74939;SDS011;63505;45.226;37.908;2023-04-24T00:18:00;12.35;;;5.15;;
74939;SDS011;63505;45.226;37.908;2023-04-24T00:20:28;8.48;;;4.18;;
74939;SDS011;63505;45.226;37.908;2023-04-24T00:23:04;8.35;;;4.80;;
74939;SDS011;63505;45.226;37.908;2023-04-24T00:25:30;8.10;;;4.03;;
74939;SDS011;63505;45.226;37.908;2023-04-24T00:27:56;11.07;;;4.00;;
74939;SDS011;63505;45.226;37.908;2023-04-24T00:30:22;7.50;;;4.15;;
74939;SDS011;63505;45.226;37.908;2023-04-24T00:32:48;6.80;;;3.80;;
74939;SDS011;63505;45.226;37.908;2023-04-24T00:35:14;8.15;;;4.43;;
74939;SDS011;63505;45.226;37.908;2023-04-24T00:37:41;7.47;;;4.07;;
74939;SDS011;63505;45.226;37.908;2023-04-24T00:40:07;7.43;;;4.32;;
74939;SDS011;63505;45.226;37.908;2023-04-24T00:42:34;8.60;;;4.47;;
74939;SDS011;63505;45.226;37.908;2023-04-24T00:44:59;8.25;;;4.32;;
74939;SDS011;63505;45.226;37.908;2023-04-24T00:47:26;5.78;;;3.97;;
74939;SDS011;63505;45.226;37.908;2023-04-24T00:49:52;8.98;;;4.30;;
74939;SDS011;63505;45.226;37.908;2023-04-24T00:52:18;7.00;;;3.72;;
74939;SDS011;63505;45.226;37.908;2023-04-24T00:54:44;9.55;;;4.72;;
74939;SDS011;63505;45.226;37.908;2023-04-24T00:57:10;9.32;;;4.35;;
74939;SDS011;63505;45.226;37.908;2023-04-24T00:59:38;9.40;;;4.85;;
74939;SDS011;63505;45.226;37.908;2023-04-24T01:02:07;6.90;;;4.28;;
74939;SDS011;63505;45.226;37.908;2023-04-24T01:04:34;7.90;;;4.28;;
74939;SDS011;63505;45.226;37.908;2023-04-24T01:07:00;5.53;;;3.22;;
74939;SDS011;63505;45.226;37.908;2023-04-24T01:09:27;8.02;;;3.88;;
74939;SDS011;63505;45.226;37.908;2023-04-24T01:11:52;6.57;;;4.18;;
74939;SDS011;63505;45.226;37.908;2023-04-24T01:14:19;19.30;;;4.60;;
74939;SDS011;63505;45.226;37.908;2023-04-24T01:16:47;9.00;;;4.47;;
74939;SDS011;63505;45.226;37.908;2023-04-24T01:19:13;6.45;;;3.70;;
74939;SDS011;63505;45.226;37.908;2023-04-24T01:21:41;10.75;;;5.00;;
74939;SDS011;63505;45.226;37.908;2023-04-24T01:24:08;10.23;;;5.00;;
74939;SDS011;63505;45.226;37.908;2023-04-24T01:26:34;6.53;;;4.38;;
74939;SDS011;63505;45.226;37.908;2023-04-24T01:29:00;11.82;;;4.75;;
74939;SDS011;63505;45.226;37.908;2023-04-24T01:31:26;6.38;;;3.85;;
74939;SDS011;63505;45.226;37.908;2023-04-24T01:33:54;7.20;;;3.65;;
74939;SDS011;63505;45.226;37.908;2023-04-24T01:36:21;6.95;;;4.30;;
74939;SDS011;63505;45.226;37.908;2023-04-24T01:38:48;7.88;;;4.38;;
74939;SDS011;63505;45.226;37.908;2023-04-24T01:41:14;6.80;;;4.03;;
74939;SDS011;63505;45.226;37.908;2023-04-24T01:43:40;7.28;;;5.28;;
74939;SDS011;63505;45.226;37.908;2023-04-24T01:46:06;8.43;;;5.07;;
74939;SDS011;63505;45.226;37.908;2023-04-24T01:48:35;8.30;;;4.57;;
74939;SDS011;63505;45.226;37.908;2023-04-24T01:51:00;10.40;;;4.45;;
74939;SDS011;63505;45.226;37.908;2023-04-24T01:53:27;6.30;;;3.33;;
74939;SDS011;63505;45.226;37.908;2023-04-24T01:55:53;8.68;;;3.95;;
74939;SDS011;63505;45.226;37.908;2023-04-24T01:58:19;8.27;;;3.90;;
74939;SDS011;63505;45.226;37.908;2023-04-24T02:00:45;6.15;;;3.90;;
74939;SDS011;63505;45.226;37.908;2023-04-24T02:03:10;9.60;;;3.92;;
74939;SDS011;63505;45.226;37.908;2023-04-24T02:05:37;10.07;;;4.65;;
74939;SDS011;63505;45.226;37.908;2023-04-24T02:08:02;7.68;;;4.63;;
74939;SDS011;63505;45.226;37.908;2023-04-24T02:10:28;11.30;;;3.83;;
74939;SDS011;63505;45.226;37.908;2023-04-24T02:12:54;8.07;;;4.50;;
74939;SDS011;63505;45.226;37.908;2023-04-24T02:15:23;6.95;;;4.25;;
74939;SDS011;63505;45.226;37.908;2023-04-24T02:17:49;8.98;;;3.88;;
74939;SDS011;63505;45.226;37.908;2023-04-24T02:20:15;8.55;;;4.80;;
74939;SDS011;63505;45.226;37.908;2023-04-24T02:22:41;7.90;;;4.38;;
74939;SDS011;63505;45.226;37.908;2023-04-24T02:25:07;8.52;;;5.05;;
74939;SDS011;63505;45.226;37.908;2023-04-24T02:27:33;10.73;;;4.68;;
74939;SDS011;63505;45.226;37.908;2023-04-24T02:29:59;9.57;;;4.72;;
74939;SDS011;63505;45.226;37.908;2023-04-24T02:32:25;9.77;;;5.00;;
74939;SDS011;63505;45.226;37.908;2023-04-24T02:34:51;7.18;;;4.22;;
74939;SDS011;63505;45.226;37.908;2023-04-24T02:37:17;13.85;;;4.88;;
74939;SDS011;63505;45.226;37.908;2023-04-24T02:39:43;7.43;;;4.88;;
74939;SDS011;63505;45.226;37.908;2023-04-24T02:42:09;7.95;;;4.28;;
74939;SDS011;63505;45.226;37.908;2023-04-24T02:44:35;9.98;;;3.85;;
74939;SDS011;63505;45.226;37.908;2023-04-24T02:47:01;6.93;;;4.55;;
74939;SDS011;63505;45.226;37.908;2023-04-24T02:49:27;7.25;;;4.45;;
74939;SDS011;63505;45.226;37.908;2023-04-24T02:51:53;8.23;;;4.55;;
74939;SDS011;63505;45.226;37.908;2023-04-24T02:54:19;8.65;;;4.07;;
74939;SDS011;63505;45.226;37.908;2023-04-24T02:56:44;7.72;;;3.97;;
74939;SDS011;63505;45.226;37.908;2023-04-24T02:59:10;10.45;;;3.88;;
74939;SDS011;63505;45.226;37.908;2023-04-24T03:01:36;11.55;;;4.97;;
74939;SDS011;63505;45.226;37.908;2023-04-24T03:04:03;13.77;;;5.47;;
74939;SDS011;63505;45.226;37.908;2023-04-24T03:06:29;15.52;;;5.00;;
74939;SDS011;63505;45.226;37.908;2023-04-24T03:08:56;8.60;;;4.90;;
74939;SDS011;63505;45.226;37.908;2023-04-24T03:11:22;7.18;;;4.50;;
74939;SDS011;63505;45.226;37.908;2023-04-24T03:13:48;7.82;;;4.07;;
74939;SDS011;63505;45.226;37.908;2023-04-24T03:16:14;7.78;;;4.13;;
74939;SDS011;63505;45.226;37.908;2023-04-24T03:18:39;9.15;;;4.63;;
74939;SDS011;63505;45.226;37.908;2023-04-24T03:21:06;7.63;;;4.75;;
74939;SDS011;63505;45.226;37.908;2023-04-24T03:23:35;10.23;;;5.25;;
74939;SDS011;63505;45.226;37.908;2023-04-24T03:26:01;14.38;;;6.25;;
74939;SDS011;63505;45.226;37.908;2023-04-24T03:28:28;8.07;;;4.40;;
74939;SDS011;63505;45.226;37.908;2023-04-24T03:31:02;8.60;;;4.05;;
74939;SDS011;63505;45.226;37.908;2023-04-24T03:33:32;9.52;;;4.43;;
74939;SDS011;63505;45.226;37.908;2023-04-24T03:36:00;10.00;;;5.60;;
74939;SDS011;63505;45.226;37.908;2023-04-24T03:38:34;11.63;;;5.00;;
74939;SDS011;63505;45.226;37.908;2023-04-24T03:41:15;8.20;;;3.88;;
74939;SDS011;63505;45.226;37.908;2023-04-24T03:43:50;6.03;;;3.70;;
74939;SDS011;63505;45.226;37.908;2023-04-24T03:46:16;8.38;;;4.72;;
74939;SDS011;63505;45.226;37.908;2023-04-24T03:48:49;11.75;;;4.60;;
74939;SDS011;63505;45.226;37.908;2023-04-24T03:51:17;65.90;;;31.38;;
74939;SDS011;63505;45.226;37.908;2023-04-24T03:53:46;19.67;;;9.57;;
74939;SDS011;63505;45.226;37.908;2023-04-24T03:56:15;7.18;;;4.30;;
74939;SDS011;63505;45.226;37.908;2023-04-24T03:58:41;7.75;;;4.55;;
74939;SDS011;63505;45.226;37.908;2023-04-24T04:01:09;6.10;;;3.88;;
74939;SDS011;63505;45.226;37.908;2023-04-24T04:03:51;8.07;;;4.07;;
74939;SDS011;63505;45.226;37.908;2023-04-24T04:06:20;10.95;;;4.80;;
74939;SDS011;63505;45.226;37.908;2023-04-24T04:08:47;11.65;;;6.53;;
74939;SDS011;63505;45.226;37.908;2023-04-24T04:11:13;7.43;;;4.40;;
74939;SDS011;63505;45.226;37.908;2023-04-24T04:13:39;9.20;;;4.57;;
74939;SDS011;63505;45.226;37.908;2023-04-24T04:16:06;10.57;;;4.07;;
74939;SDS011;63505;45.226;37.908;2023-04-24T04:18:32;10.30;;;4.35;;
74939;SDS011;63505;45.226;37.908;2023-04-24T04:20:58;7.15;;;3.63;;
74939;SDS011;63505;45.226;37.908;2023-04-24T04:23:26;11.10;;;5.05;;
74939;SDS011;63505;45.226;37.908;2023-04-24T04:26:03;8.35;;;4.32;;
74939;SDS011;63505;45.226;37.908;2023-04-24T04:28:42;7.82;;;3.92;;
74939;SDS011;63505;45.226;37.908;2023-04-24T04:31:10;5.55;;;3.15;;
74939;SDS011;63505;45.226;37.908;2023-04-24T04:33:36;6.32;;;4.15;;
74939;SDS011;63505;45.226;37.908;2023-04-24T04:36:06;12.02;;;4.82;;
74939;SDS011;63505;45.226;37.908;2023-04-24T04:38:36;5.72;;;3.75;;
74939;SDS011;63505;45.226;37.908;2023-04-24T04:41:20;7.15;;;3.50;;
74939;SDS011;63505;45.226;37.908;2023-04-24T04:43:46;10.07;;;4.22;;
74939;SDS011;63505;45.226;37.908;2023-04-24T04:46:13;4.80;;;3.30;;
74939;SDS011;63505;45.226;37.908;2023-04-24T04:48:59;4.65;;;2.88;;
74939;SDS011;63505;45.226;37.908;2023-04-24T04:51:26;6.07;;;3.67;;
74939;SDS011;63505;45.226;37.908;2023-04-24T04:53:53;5.43;;;3.60;;
74939;SDS011;63505;45.226;37.908;2023-04-24T04:56:19;8.55;;;4.07;;
74939;SDS011;63505;45.226;37.908;2023-04-24T04:58:45;5.70;;;3.65;;
74939;SDS011;63505;45.226;37.908;2023-04-24T05:01:14;5.25;;;3.40;;
74939;SDS011;63505;45.226;37.908;2023-04-24T05:03:44;7.65;;;3.55;;
74939;SDS011;63505;45.226;37.908;2023-04-24T05:06:13;6.72;;;3.67;;
74939;SDS011;63505;45.226;37.908;2023-04-24T05:08:39;7.47;;;3.90;;
74939;SDS011;63505;45.226;37.908;2023-04-24T05:11:08;8.93;;;4.25;;
74939;SDS011;63505;45.226;37.908;2023-04-24T05:13:36;8.68;;;4.03;;
74939;SDS011;63505;45.226;37.908;2023-04-24T05:16:05;7.55;;;3.55;;
74939;SDS011;63505;45.226;37.908;2023-04-24T05:18:32;8.23;;;3.95;;
74939;SDS011;63505;45.226;37.908;2023-04-24T05:20:59;6.75;;;3.47;;
74939;SDS011;63505;45.226;37.908;2023-04-24T05:23:25;5.47;;;3.25;;
74939;SDS011;63505;45.226;37.908;2023-04-24T05:25:53;6.50;;;4.15;;
74939;SDS011;63505;45.226;37.908;2023-04-24T05:28:19;6.45;;;4.05;;
74939;SDS011;63505;45.226;37.908;2023-04-24T05:30:56;9.18;;;3.97;;
74939;SDS011;63505;45.226;37.908;2023-04-24T05:33:23;6.22;;;3.17;;
74939;SDS011;63505;45.226;37.908;2023-04-24T05:35:49;7.20;;;3.53;;
74939;SDS011;63505;45.226;37.908;2023-04-24T05:38:16;9.60;;;4.18;;
74939;SDS011;63505;45.226;37.908;2023-04-24T05:40:45;7.28;;;4.15;;
74939;SDS011;63505;45.226;37.908;2023-04-24T05:43:11;6.43;;;3.58;;
74939;SDS011;63505;45.226;37.908;2023-04-24T05:45:38;5.45;;;3.30;;
74939;SDS011;63505;45.226;37.908;2023-04-24T05:48:05;8.32;;;3.50;;
74939;SDS011;63505;45.226;37.908;2023-04-24T05:50:31;6.28;;;3.40;;
74939;SDS011;63505;45.226;37.908;2023-04-24T05:52:58;5.65;;;3.17;;
74939;SDS011;63505;45.226;37.908;2023-04-24T05:55:28;7.00;;;3.58;;
74939;SDS011;63505;45.226;37.908;2023-04-24T05:57:55;5.68;;;3.22;;
74939;SDS011;63505;45.226;37.908;2023-04-24T06:00:23;7.97;;;3.47;;
74939;SDS011;63505;45.226;37.908;2023-04-24T06:02:58;7.18;;;3.17;;
74939;SDS011;63505;45.226;37.908;2023-04-24T06:05:25;5.95;;;4.00;;
74939;SDS011;63505;45.226;37.908;2023-04-24T06:07:52;6.50;;;3.15;;
74939;SDS011;63505;45.226;37.908;2023-04-24T06:12:46;7.78;;;3.22;;
74939;SDS011;63505;45.226;37.908;2023-04-24T06:15:16;4.85;;;3.10;;
74939;SDS011;63505;45.226;37.908;2023-04-24T06:17:56;5.38;;;2.72;;
74939;SDS011;63505;45.226;37.908;2023-04-24T06:20:22;4.80;;;2.67;;
74939;SDS011;63505;45.226;37.908;2023-04-24T06:22:48;10.00;;;3.42;;
74939;SDS011;63505;45.226;37.908;2023-04-24T06:25:14;7.68;;;3.38;;
74939;SDS011;63505;45.226;37.908;2023-04-24T06:27:40;6.35;;;3.85;;
74939;SDS011;63505;45.226;37.908;2023-04-24T06:30:07;4.63;;;2.60;;
74939;SDS011;63505;45.226;37.908;2023-04-24T06:32:33;5.63;;;3.13;;
74939;SDS011;63505;45.226;37.908;2023-04-24T06:34:59;7.43;;;3.72;;
74939;SDS011;63505;45.226;37.908;2023-04-24T06:37:25;7.78;;;3.53;;
74939;SDS011;63505;45.226;37.908;2023-04-24T06:39:51;6.45;;;3.00;;
74939;SDS011;63505;45.226;37.908;2023-04-24T06:42:17;5.07;;;3.25;;
74939;SDS011;63505;45.226;37.908;2023-04-24T06:44:48;8.73;;;4.18;;
74939;SDS011;63505;45.226;37.908;2023-04-24T06:47:14;8.02;;;4.15;;
74939;SDS011;63505;45.226;37.908;2023-04-24T06:49:40;6.82;;;3.53;;
74939;SDS011;63505;45.226;37.908;2023-04-24T06:52:07;8.18;;;5.05;;
74939;SDS011;63505;45.226;37.908;2023-04-24T06:54:33;9.80;;;4.78;;
74939;SDS011;63505;45.226;37.908;2023-04-24T06:56:59;10.15;;;4.55;;
74939;SDS011;63505;45.226;37.908;2023-04-24T06:59:29;9.30;;;4.18;;
74939;SDS011;63505;45.226;37.908;2023-04-24T07:01:56;7.43;;;4.47;;
74939;SDS011;63505;45.226;37.908;2023-04-24T07:04:22;10.05;;;4.35;;
74939;SDS011;63505;45.226;37.908;2023-04-24T07:06:48;9.20;;;3.85;;
74939;SDS011;63505;45.226;37.908;2023-04-24T07:09:17;7.88;;;3.83;;
74939;SDS011;63505;45.226;37.908;2023-04-24T07:11:44;6.35;;;3.30;;
74939;SDS011;63505;45.226;37.908;2023-04-24T07:14:11;9.45;;;3.50;;
74939;SDS011;63505;45.226;37.908;2023-04-24T07:16:37;6.32;;;3.25;;
74939;SDS011;63505;45.226;37.908;2023-04-24T07:19:03;10.77;;;3.88;;
74939;SDS011;63505;45.226;37.908;2023-04-24T07:21:29;6.45;;;2.95;;
74939;SDS011;63505;45.226;37.908;2023-04-24T07:23:56;6.22;;;3.42;;
74939;SDS011;63505;45.226;37.908;2023-04-24T07:26:22;7.45;;;3.85;;
74939;SDS011;63505;45.226;37.908;2023-04-24T07:28:48;8.70;;;3.78;;
74939;SDS011;63505;45.226;37.908;2023-04-24T07:31:14;8.95;;;4.15;;
74939;SDS011;63505;45.226;37.908;2023-04-24T07:33:40;9.50;;;3.15;;
74939;SDS011;63505;45.226;37.908;2023-04-24T07:36:06;5.03;;;2.92;;
74939;SDS011;63505;45.226;37.908;2023-04-24T07:38:32;4.75;;;2.40;;
74939;SDS011;63505;45.226;37.908;2023-04-24T07:40:58;7.60;;;3.67;;
74939;SDS011;63505;45.226;37.908;2023-04-24T07:43:24;6.10;;;3.05;;
74939;SDS011;63505;45.226;37.908;2023-04-24T07:45:50;5.93;;;3.90;;
74939;SDS011;63505;45.226;37.908;2023-04-24T07:48:17;10.25;;;3.85;;
74939;SDS011;63505;45.226;37.908;2023-04-24T07:50:43;8.43;;;3.47;;
74939;SDS011;63505;45.226;37.908;2023-04-24T07:53:10;10.18;;;4.32;;
74939;SDS011;63505;45.226;37.908;2023-04-24T07:55:36;9.75;;;3.72;;
74939;SDS011;63505;45.226;37.908;2023-04-24T07:58:02;5.53;;;3.17;;
74939;SDS011;63505;45.226;37.908;2023-04-24T08:00:28;6.38;;;3.85;;
74939;SDS011;63505;45.226;37.908;2023-04-24T08:02:53;7.15;;;3.97;;
74939;SDS011;63505;45.226;37.908;2023-04-24T08:05:19;9.70;;;3.88;;
74939;SDS011;63505;45.226;37.908;2023-04-24T08:07:46;6.63;;;3.72;;
74939;SDS011;63505;45.226;37.908;2023-04-24T08:10:13;7.05;;;3.92;;
74939;SDS011;63505;45.226;37.908;2023-04-24T08:12:40;6.03;;;3.50;;
74939;SDS011;63505;45.226;37.908;2023-04-24T08:15:06;6.85;;;3.30;;
74939;SDS011;63505;45.226;37.908;2023-04-24T08:17:36;5.93;;;3.28;;
74939;SDS011;63505;45.226;37.908;2023-04-24T08:20:02;5.90;;;2.58;;
74939;SDS011;63505;45.226;37.908;2023-04-24T08:22:30;5.82;;;3.40;;
74939;SDS011;63505;45.226;37.908;2023-04-24T08:24:56;7.30;;;3.85;;
74939;SDS011;63505;45.226;37.908;2023-04-24T08:27:23;6.28;;;3.28;;
74939;SDS011;63505;45.226;37.908;2023-04-24T08:29:49;8.20;;;3.60;;
74939;SDS011;63505;45.226;37.908;2023-04-24T08:32:15;6.80;;;3.28;;
74939;SDS011;63505;45.226;37.908;2023-04-24T08:34:42;9.10;;;4.32;;
74939;SDS011;63505;45.226;37.908;2023-04-24T08:37:07;5.97;;;3.20;;
74939;SDS011;63505;45.226;37.908;2023-04-24T08:39:33;6.65;;;4.03;;
74939;SDS011;63505;45.226;37.908;2023-04-24T08:41:59;7.20;;;3.63;;
74939;SDS011;63505;45.226;37.908;2023-04-24T08:44:34;6.20;;;3.63;;
74939;SDS011;63505;45.226;37.908;2023-04-24T08:47:01;10.27;;;3.67;;
74939;SDS011;63505;45.226;37.908;2023-04-24T08:49:28;7.97;;;3.55;;
74939;SDS011;63505;45.226;37.908;2023-04-24T08:51:54;8.82;;;3.97;;
74939;SDS011;63505;45.226;37.908;2023-04-24T08:54:20;7.38;;;4.07;;
74939;SDS011;63505;45.226;37.908;2023-04-24T08:56:47;15.07;;;3.42;;
74939;SDS011;63505;45.226;37.908;2023-04-24T08:59:14;5.70;;;3.38;;
74939;SDS011;63505;45.226;37.908;2023-04-24T09:01:41;7.70;;;3.63;;
74939;SDS011;63505;45.226;37.908;2023-04-24T09:04:08;7.75;;;3.63;;
74939;SDS011;63505;45.226;37.908;2023-04-24T09:06:36;6.57;;;4.38;;
74939;SDS011;63505;45.226;37.908;2023-04-24T09:09:02;7.38;;;4.03;;
74939;SDS011;63505;45.226;37.908;2023-04-24T09:11:31;8.75;;;4.13;;
74939;SDS011;63505;45.226;37.908;2023-04-24T09:13:58;6.53;;;4.03;;
74939;SDS011;63505;45.226;37.908;2023-04-24T09:16:25;8.40;;;3.28;;
74939;SDS011;63505;45.226;37.908;2023-04-24T09:18:51;4.82;;;1.95;;
74939;SDS011;63505;45.226;37.908;2023-04-24T09:21:20;6.78;;;3.75;;
74939;SDS011;63505;45.226;37.908;2023-04-24T09:23:47;8.30;;;2.97;;
74939;SDS011;63505;45.226;37.908;2023-04-24T09:26:23;6.57;;;4.15;;
74939;SDS011;63505;45.226;37.908;2023-04-24T09:28:49;6.30;;;4.20;;
74939;SDS011;63505;45.226;37.908;2023-04-24T09:31:17;11.27;;;3.70;;
74939;SDS011;63505;45.226;37.908;2023-04-24T09:34:07;8.70;;;4.32;;
74939;SDS011;63505;45.226;37.908;2023-04-24T09:36:33;8.77;;;3.40;;
74939;SDS011;63505;45.226;37.908;2023-04-24T09:41:43;4.68;;;2.45;;
74939;SDS011;63505;45.226;37.908;2023-04-24T09:46:37;9.77;;;3.78;;
74939;SDS011;63505;45.226;37.908;2023-04-24T09:49:07;9.80;;;5.40;;
74939;SDS011;63505;45.226;37.908;2023-04-24T09:51:36;7.75;;;4.45;;
74939;SDS011;63505;45.226;37.908;2023-04-24T09:54:04;6.78;;;3.95;;
74939;SDS011;63505;45.226;37.908;2023-04-24T09:56:39;8.57;;;4.15;;
74939;SDS011;63505;45.226;37.908;2023-04-24T09:59:08;15.25;;;5.57;;
74939;SDS011;63505;45.226;37.908;2023-04-24T10:01:34;14.80;;;6.80;;
74939;SDS011;63505;45.226;37.908;2023-04-24T10:04:00;12.52;;;5.82;;
74939;SDS011;63505;45.226;37.908;2023-04-24T10:06:31;11.45;;;6.45;;
74939;SDS011;63505;45.226;37.908;2023-04-24T10:09:00;11.82;;;4.90;;
74939;SDS011;63505;45.226;37.908;2023-04-24T10:11:26;15.82;;;6.10;;
74939;SDS011;63505;45.226;37.908;2023-04-24T10:13:53;15.00;;;5.32;;
74939;SDS011;63505;45.226;37.908;2023-04-24T10:16:21;15.55;;;7.63;;
74939;SDS011;63505;45.226;37.908;2023-04-24T10:18:48;6.50;;;3.40;;
74939;SDS011;63505;45.226;37.908;2023-04-24T10:21:17;6.03;;;3.20;;
74939;SDS011;63505;45.226;37.908;2023-04-24T10:23:43;11.80;;;6.57;;
74939;SDS011;63505;45.226;37.908;2023-04-24T10:26:14;12.43;;;6.28;;
74939;SDS011;63505;45.226;37.908;2023-04-24T10:28:44;13.70;;;6.30;;
74939;SDS011;63505;45.226;37.908;2023-04-24T10:31:11;13.25;;;6.38;;
74939;SDS011;63505;45.226;37.908;2023-04-24T10:33:38;10.45;;;5.80;;
74939;SDS011;63505;45.226;37.908;2023-04-24T10:36:07;13.57;;;6.82;;
74939;SDS011;63505;45.226;37.908;2023-04-24T10:38:38;13.43;;;6.50;;
74939;SDS011;63505;45.226;37.908;2023-04-24T10:41:07;12.00;;;5.03;;
74939;SDS011;63505;45.226;37.908;2023-04-24T10:43:45;10.07;;;6.05;;
74939;SDS011;63505;45.226;37.908;2023-04-24T10:46:16;9.98;;;5.30;;
74939;SDS011;63505;45.226;37.908;2023-04-24T10:48:51;10.43;;;6.22;;
74939;SDS011;63505;45.226;37.908;2023-04-24T10:51:21;7.57;;;4.65;;
74939;SDS011;63505;45.226;37.908;2023-04-24T10:53:49;13.30;;;7.68;;
74939;SDS011;63505;45.226;37.908;2023-04-24T10:56:16;11.45;;;6.97;;
74939;SDS011;63505;45.226;37.908;2023-04-24T10:58:50;12.70;;;6.85;;
74939;SDS011;63505;45.226;37.908;2023-04-24T11:01:37;13.00;;;6.78;;
74939;SDS011;63505;45.226;37.908;2023-04-24T11:04:04;12.48;;;7.35;;
74939;SDS011;63505;45.226;37.908;2023-04-24T11:09:06;13.82;;;7.55;;
74939;SDS011;63505;45.226;37.908;2023-04-24T11:11:34;11.27;;;6.10;;
74939;SDS011;63505;45.226;37.908;2023-04-24T11:14:03;10.93;;;5.95;;
74939;SDS011;63505;45.226;37.908;2023-04-24T11:16:32;14.25;;;6.82;;
74939;SDS011;63505;45.226;37.908;2023-04-24T11:19:05;10.85;;;6.97;;
74939;SDS011;63505;45.226;37.908;2023-04-24T11:21:54;11.50;;;7.63;;
74939;SDS011;63505;45.226;37.908;2023-04-24T11:26:54;13.40;;;8.52;;
74939;SDS011;63505;45.226;37.908;2023-04-24T11:29:22;26.50;;;11.95;;
74939;SDS011;63505;45.226;37.908;2023-04-24T11:31:48;17.95;;;8.65;;
74939;SDS011;63505;45.226;37.908;2023-04-24T11:34:17;11.57;;;6.28;;
74939;SDS011;63505;45.226;37.908;2023-04-24T11:36:44;12.65;;;7.63;;
74939;SDS011;63505;45.226;37.908;2023-04-24T11:39:13;15.07;;;7.97;;
74939;SDS011;63505;45.226;37.908;2023-04-24T11:41:40;16.75;;;9.73;;
74939;SDS011;63505;45.226;37.908;2023-04-24T11:44:07;16.25;;;7.82;;
74939;SDS011;63505;45.226;37.908;2023-04-24T11:46:34;20.83;;;9.52;;
74939;SDS011;63505;45.226;37.908;2023-04-24T11:49:00;15.48;;;8.60;;
74939;SDS011;63505;45.226;37.908;2023-04-24T11:51:26;15.90;;;8.32;;
74939;SDS011;63505;45.226;37.908;2023-04-24T11:53:53;16.17;;;6.90;;
74939;SDS011;63505;45.226;37.908;2023-04-24T11:56:21;13.45;;;7.22;;
74939;SDS011;63505;45.226;37.908;2023-04-24T11:58:53;6.65;;;3.47;;
74939;SDS011;63505;45.226;37.908;2023-04-24T12:01:22;14.82;;;8.50;;
74939;SDS011;63505;45.226;37.908;2023-04-24T12:03:48;13.20;;;5.88;;
74939;SDS011;63505;45.226;37.908;2023-04-24T12:06:16;17.35;;;8.60;;
74939;SDS011;63505;45.226;37.908;2023-04-24T12:08:45;10.07;;;5.75;;
74939;SDS011;63505;45.226;37.908;2023-04-24T12:11:14;15.77;;;8.45;;
74939;SDS011;63505;45.226;37.908;2023-04-24T12:13:40;13.40;;;7.45;;
74939;SDS011;63505;45.226;37.908;2023-04-24T12:16:06;15.13;;;9.40;;
74939;SDS011;63505;45.226;37.908;2023-04-24T12:18:32;18.95;;;8.70;;
74939;SDS011;63505;45.226;37.908;2023-04-24T12:21:14;17.15;;;8.52;;
74939;SDS011;63505;45.226;37.908;2023-04-24T12:23:47;16.58;;;8.93;;
74939;SDS011;63505;45.226;37.908;2023-04-24T12:26:17;13.93;;;7.88;;
74939;SDS011;63505;45.226;37.908;2023-04-24T12:28:46;16.17;;;8.52;;
74939;SDS011;63505;45.226;37.908;2023-04-24T12:31:14;18.75;;;8.43;;
74939;SDS011;63505;45.226;37.908;2023-04-24T12:33:41;17.50;;;9.18;;
74939;SDS011;63505;45.226;37.908;2023-04-24T12:36:11;17.25;;;8.60;;
74939;SDS011;63505;45.226;37.908;2023-04-24T12:38:37;15.20;;;7.93;;
74939;SDS011;63505;45.226;37.908;2023-04-24T12:41:07;16.45;;;8.55;;
74939;SDS011;63505;45.226;37.908;2023-04-24T12:43:37;16.17;;;7.57;;
74939;SDS011;63505;45.226;37.908;2023-04-24T12:46:04;20.50;;;8.73;;
74939;SDS011;63505;45.226;37.908;2023-04-24T12:48:30;12.98;;;7.05;;
74939;SDS011;63505;45.226;37.908;2023-04-24T12:50:57;15.23;;;8.65;;
74939;SDS011;63505;45.226;37.908;2023-04-24T12:53:26;17.08;;;8.40;;
74939;SDS011;63505;45.226;37.908;2023-04-24T12:55:54;14.63;;;7.88;;
74939;SDS011;63505;45.226;37.908;2023-04-24T12:58:21;13.13;;;7.68;;
74939;SDS011;63505;45.226;37.908;2023-04-24T13:00:47;15.18;;;8.25;;
74939;SDS011;63505;45.226;37.908;2023-04-24T13:03:13;16.58;;;8.23;;
74939;SDS011;63505;45.226;37.908;2023-04-24T13:05:40;14.75;;;8.40;;
74939;SDS011;63505;45.226;37.908;2023-04-24T13:08:07;15.55;;;7.47;;
74939;SDS011;63505;45.226;37.908;2023-04-24T13:10:33;16.45;;;9.40;;
74939;SDS011;63505;45.226;37.908;2023-04-24T13:13:00;20.90;;;8.85;;
74939;SDS011;63505;45.226;37.908;2023-04-24T13:15:26;16.65;;;9.02;;
74939;SDS011;63505;45.226;37.908;2023-04-24T13:17:52;20.92;;;9.50;;
74939;SDS011;63505;45.226;37.908;2023-04-24T13:20:18;18.75;;;10.57;;
74939;SDS011;63505;45.226;37.908;2023-04-24T13:22:44;17.77;;;9.23;;
74939;SDS011;63505;45.226;37.908;2023-04-24T13:25:09;21.95;;;11.48;;
74939;SDS011;63505;45.226;37.908;2023-04-24T13:27:37;19.55;;;10.27;;
74939;SDS011;63505;45.226;37.908;2023-04-24T13:30:04;23.98;;;10.73;;
74939;SDS011;63505;45.226;37.908;2023-04-24T13:32:30;21.70;;;11.25;;
74939;SDS011;63505;45.226;37.908;2023-04-24T13:34:57;18.33;;;8.93;;
74939;SDS011;63505;45.226;37.908;2023-04-24T13:37:23;19.70;;;10.25;;
74939;SDS011;63505;45.226;37.908;2023-04-24T13:39:49;17.23;;;7.70;;
74939;SDS011;63505;45.226;37.908;2023-04-24T13:42:15;18.45;;;10.30;;
74939;SDS011;63505;45.226;37.908;2023-04-24T13:44:40;15.43;;;8.48;;
74939;SDS011;63505;45.226;37.908;2023-04-24T13:47:06;15.68;;;8.85;;
74939;SDS011;63505;45.226;37.908;2023-04-24T13:49:32;18.45;;;10.85;;
74939;SDS011;63505;45.226;37.908;2023-04-24T13:51:58;24.80;;;11.50;;
74939;SDS011;63505;45.226;37.908;2023-04-24T13:54:24;18.80;;;9.77;;
74939;SDS011;63505;45.226;37.908;2023-04-24T13:56:51;16.40;;;8.80;;
74939;SDS011;63505;45.226;37.908;2023-04-24T13:59:17;18.33;;;9.38;;
74939;SDS011;63505;45.226;37.908;2023-04-24T14:01:47;17.48;;;9.73;;
74939;SDS011;63505;45.226;37.908;2023-04-24T14:04:13;18.15;;;9.60;;
74939;SDS011;63505;45.226;37.908;2023-04-24T14:06:39;20.55;;;10.60;;
74939;SDS011;63505;45.226;37.908;2023-04-24T14:09:05;16.77;;;9.10;;
74939;SDS011;63505;45.226;37.908;2023-04-24T14:11:31;19.58;;;9.20;;
74939;SDS011;63505;45.226;37.908;2023-04-24T14:13:57;15.27;;;8.45;;
74939;SDS011;63505;45.226;37.908;2023-04-24T14:16:23;18.58;;;10.43;;
74939;SDS011;63505;45.226;37.908;2023-04-24T14:18:49;17.83;;;7.32;;
74939;SDS011;63505;45.226;37.908;2023-04-24T14:21:15;23.17;;;12.02;;
74939;SDS011;63505;45.226;37.908;2023-04-24T14:23:41;25.35;;;13.38;;
74939;SDS011;63505;45.226;37.908;2023-04-24T14:26:07;18.63;;;10.18;;
74939;SDS011;63505;45.226;37.908;2023-04-24T14:28:32;23.23;;;12.00;;
74939;SDS011;63505;45.226;37.908;2023-04-24T14:30:59;20.35;;;12.40;;
74939;SDS011;63505;45.226;37.908;2023-04-24T14:33:25;22.60;;;12.18;;
74939;SDS011;63505;45.226;37.908;2023-04-24T14:35:51;23.83;;;11.55;;
74939;SDS011;63505;45.226;37.908;2023-04-24T14:38:17;18.05;;;8.77;;
74939;SDS011;63505;45.226;37.908;2023-04-24T14:40:43;20.35;;;10.38;;
74939;SDS011;63505;45.226;37.908;2023-04-24T14:43:08;14.18;;;7.72;;